sensor_id;sensor_type;location;lat;lon;timestamp;P1;durP1;ratioP1;P2;durP2;ratioP2
55290;SDS011;41155;39.768;2.712;2024-03-23T00:54:03;38.90;;;20.30;;
55290;SDS011;41155;39.768;2.712;2024-03-23T00:56:29;34.67;;;20.52;;
55290;SDS011;41155;39.768;2.712;2024-03-23T00:58:55;43.88;;;22.17;;
55290;SDS011;41155;39.768;2.712;2024-03-23T01:01:20;38.65;;;21.23;;
55290;SDS011;41155;39.768;2.712;2024-03-23T01:03:46;40.45;;;20.92;;
55290;SDS011;41155;39.768;2.712;2024-03-23T01:06:11;33.72;;;20.48;;
55290;SDS011;41155;39.768;2.712;2024-03-23T01:08:37;32.15;;;20.38;;
55290;SDS011;41155;39.768;2.712;2024-03-23T01:11:03;36.85;;;21.38;;
55290;SDS011;41155;39.768;2.712;2024-03-23T01:13:29;33.83;;;19.25;;
55290;SDS011;41155;39.768;2.712;2024-03-23T01:15:55;35.97;;;20.02;;
55290;SDS011;41155;39.768;2.712;2024-03-23T01:18:22;36.78;;;20.27;;
55290;SDS011;41155;39.768;2.712;2024-03-23T01:20:48;43.53;;;21.00;;
55290;SDS011;41155;39.768;2.712;2024-03-23T01:23:14;36.17;;;19.73;;
55290;SDS011;41155;39.768;2.712;2024-03-23T01:25:40;34.60;;;19.60;;
55290;SDS011;41155;39.768;2.712;2024-03-23T01:28:06;33.08;;;19.98;;
55290;SDS011;41155;39.768;2.712;2024-03-23T01:30:32;32.35;;;19.48;;
55290;SDS011;41155;39.768;2.712;2024-03-23T01:32:58;38.45;;;18.95;;
55290;SDS011;41155;39.768;2.712;2024-03-23T01:35:24;32.97;;;19.13;;
55290;SDS011;41155;39.768;2.712;2024-03-23T01:37:49;41.22;;;18.30;;
55290;SDS011;41155;39.768;2.712;2024-03-23T01:40:18;36.53;;;18.42;;
55290;SDS011;41155;39.768;2.712;2024-03-23T01:42:56;31.70;;;18.55;;
55290;SDS011;41155;39.768;2.712;2024-03-23T01:45:22;35.95;;;18.42;;
55290;SDS011;41155;39.768;2.712;2024-03-23T01:47:49;41.33;;;17.85;;
55290;SDS011;41155;39.768;2.712;2024-03-23T01:50:18;44.15;;;21.00;;
55290;SDS011;41155;39.768;2.712;2024-03-23T01:52:44;43.17;;;19.33;;
55290;SDS011;41155;39.768;2.712;2024-03-23T01:55:10;44.35;;;19.63;;
55290;SDS011;41155;39.768;2.712;2024-03-23T01:57:35;44.30;;;21.05;;
55290;SDS011;41155;39.768;2.712;2024-03-23T02:00:01;35.25;;;17.35;;
55290;SDS011;41155;39.768;2.712;2024-03-23T02:02:26;34.97;;;19.25;;
55290;SDS011;41155;39.768;2.712;2024-03-23T02:04:52;36.33;;;19.90;;
55290;SDS011;41155;39.768;2.712;2024-03-23T02:07:18;39.85;;;21.38;;
55290;SDS011;41155;39.768;2.712;2024-03-23T02:09:43;30.80;;;17.85;;
55290;SDS011;41155;39.768;2.712;2024-03-23T02:12:09;31.50;;;15.65;;
55290;SDS011;41155;39.768;2.712;2024-03-23T02:14:35;31.92;;;16.17;;
55290;SDS011;41155;39.768;2.712;2024-03-23T02:17:01;33.95;;;16.30;;
55290;SDS011;41155;39.768;2.712;2024-03-23T02:19:26;28.60;;;15.60;;
55290;SDS011;41155;39.768;2.712;2024-03-23T02:21:51;33.53;;;15.25;;
55290;SDS011;41155;39.768;2.712;2024-03-23T02:24:17;30.08;;;15.85;;
55290;SDS011;41155;39.768;2.712;2024-03-23T02:26:42;45.33;;;20.60;;
55290;SDS011;41155;39.768;2.712;2024-03-23T02:29:08;30.02;;;17.65;;
55290;SDS011;41155;39.768;2.712;2024-03-23T02:31:34;36.97;;;18.42;;
55290;SDS011;41155;39.768;2.712;2024-03-23T02:34:00;38.38;;;19.77;;
55290;SDS011;41155;39.768;2.712;2024-03-23T02:36:26;38.80;;;22.98;;
55290;SDS011;41155;39.768;2.712;2024-03-23T02:38:51;33.03;;;23.70;;
55290;SDS011;41155;39.768;2.712;2024-03-23T02:41:17;40.78;;;22.30;;
55290;SDS011;41155;39.768;2.712;2024-03-23T02:43:48;45.17;;;21.77;;
55290;SDS011;41155;39.768;2.712;2024-03-23T02:46:16;33.60;;;19.95;;
55290;SDS011;41155;39.768;2.712;2024-03-23T02:48:42;43.38;;;20.23;;
55290;SDS011;41155;39.768;2.712;2024-03-23T02:51:08;30.58;;;18.98;;
55290;SDS011;41155;39.768;2.712;2024-03-23T02:53:34;33.42;;;18.35;;
55290;SDS011;41155;39.768;2.712;2024-03-23T02:55:59;33.75;;;17.95;;
55290;SDS011;41155;39.768;2.712;2024-03-23T02:58:25;33.08;;;17.15;;
55290;SDS011;41155;39.768;2.712;2024-03-23T03:00:50;37.05;;;18.88;;
55290;SDS011;41155;39.768;2.712;2024-03-23T03:03:16;36.97;;;19.42;;
55290;SDS011;41155;39.768;2.712;2024-03-23T03:05:41;34.55;;;16.60;;
55290;SDS011;41155;39.768;2.712;2024-03-23T03:08:06;38.95;;;16.55;;
55290;SDS011;41155;39.768;2.712;2024-03-23T03:10:32;30.95;;;16.30;;
55290;SDS011;41155;39.768;2.712;2024-03-23T03:13:00;28.80;;;16.05;;
55290;SDS011;41155;39.768;2.712;2024-03-23T03:15:26;43.13;;;16.58;;
55290;SDS011;41155;39.768;2.712;2024-03-23T03:17:51;29.65;;;16.08;;
55290;SDS011;41155;39.768;2.712;2024-03-23T03:20:17;32.05;;;16.25;;
55290;SDS011;41155;39.768;2.712;2024-03-23T03:22:43;30.85;;;16.88;;
55290;SDS011;41155;39.768;2.712;2024-03-23T03:25:09;33.42;;;20.08;;
55290;SDS011;41155;39.768;2.712;2024-03-23T03:27:34;33.85;;;20.90;;
55290;SDS011;41155;39.768;2.712;2024-03-23T03:30:00;40.28;;;22.80;;
55290;SDS011;41155;39.768;2.712;2024-03-23T03:32:31;42.03;;;22.40;;
55290;SDS011;41155;39.768;2.712;2024-03-23T03:34:57;39.95;;;22.05;;
55290;SDS011;41155;39.768;2.712;2024-03-23T03:37:22;38.83;;;22.15;;
55290;SDS011;41155;39.768;2.712;2024-03-23T03:39:48;49.03;;;21.83;;
55290;SDS011;41155;39.768;2.712;2024-03-23T03:42:14;38.50;;;20.27;;
55290;SDS011;41155;39.768;2.712;2024-03-23T03:44:39;35.22;;;17.83;;
55290;SDS011;41155;39.768;2.712;2024-03-23T03:47:05;40.20;;;18.90;;
55290;SDS011;41155;39.768;2.712;2024-03-23T03:49:31;35.35;;;19.23;;
55290;SDS011;41155;39.768;2.712;2024-03-23T03:51:57;37.20;;;18.88;;
55290;SDS011;41155;39.768;2.712;2024-03-23T03:54:22;38.55;;;17.02;;
55290;SDS011;41155;39.768;2.712;2024-03-23T03:56:48;27.35;;;16.10;;
55290;SDS011;41155;39.768;2.712;2024-03-23T03:59:13;27.65;;;16.35;;
55290;SDS011;41155;39.768;2.712;2024-03-23T04:01:40;28.17;;;16.00;;
55290;SDS011;41155;39.768;2.712;2024-03-23T04:04:05;35.88;;;15.52;;
55290;SDS011;41155;39.768;2.712;2024-03-23T04:06:31;36.97;;;16.30;;
55290;SDS011;41155;39.768;2.712;2024-03-23T04:08:58;32.90;;;17.98;;
55290;SDS011;41155;39.768;2.712;2024-03-23T04:11:24;34.90;;;19.08;;
55290;SDS011;41155;39.768;2.712;2024-03-23T04:13:49;35.88;;;18.17;;
55290;SDS011;41155;39.768;2.712;2024-03-23T04:16:24;37.35;;;19.02;;
55290;SDS011;41155;39.768;2.712;2024-03-23T04:18:54;45.85;;;18.27;;
55290;SDS011;41155;39.768;2.712;2024-03-23T04:21:19;34.65;;;18.95;;
55290;SDS011;41155;39.768;2.712;2024-03-23T04:23:45;38.83;;;18.40;;
55290;SDS011;41155;39.768;2.712;2024-03-23T04:26:11;35.88;;;19.95;;
55290;SDS011;41155;39.768;2.712;2024-03-23T04:28:36;35.13;;;18.50;;
55290;SDS011;41155;39.768;2.712;2024-03-23T04:31:05;31.52;;;16.77;;
55290;SDS011;41155;39.768;2.712;2024-03-23T04:33:31;47.65;;;17.02;;
55290;SDS011;41155;39.768;2.712;2024-03-23T04:35:56;29.45;;;17.25;;
55290;SDS011;41155;39.768;2.712;2024-03-23T04:38:22;36.05;;;16.20;;
55290;SDS011;41155;39.768;2.712;2024-03-23T04:40:59;29.23;;;15.70;;
55290;SDS011;41155;39.768;2.712;2024-03-23T04:43:25;31.50;;;14.65;;
55290;SDS011;41155;39.768;2.712;2024-03-23T04:45:51;31.30;;;17.55;;
55290;SDS011;41155;39.768;2.712;2024-03-23T04:48:19;39.45;;;18.10;;
55290;SDS011;41155;39.768;2.712;2024-03-23T04:50:45;36.90;;;18.75;;
55290;SDS011;41155;39.768;2.712;2024-03-23T04:53:11;46.05;;;19.52;;
55290;SDS011;41155;39.768;2.712;2024-03-23T04:55:36;37.17;;;19.77;;
55290;SDS011;41155;39.768;2.712;2024-03-23T04:58:04;34.40;;;16.15;;
55290;SDS011;41155;39.768;2.712;2024-03-23T05:00:30;25.98;;;15.82;;
55290;SDS011;41155;39.768;2.712;2024-03-23T05:02:59;26.48;;;15.65;;
55290;SDS011;41155;39.768;2.712;2024-03-23T05:05:24;29.70;;;14.40;;
55290;SDS011;41155;39.768;2.712;2024-03-23T05:07:50;33.15;;;14.02;;
55290;SDS011;41155;39.768;2.712;2024-03-23T05:10:15;29.20;;;13.48;;
55290;SDS011;41155;39.768;2.712;2024-03-23T05:12:41;26.95;;;14.10;;
55290;SDS011;41155;39.768;2.712;2024-03-23T05:15:07;39.33;;;14.05;;
55290;SDS011;41155;39.768;2.712;2024-03-23T05:17:33;29.75;;;14.18;;
55290;SDS011;41155;39.768;2.712;2024-03-23T05:19:59;41.38;;;17.40;;
55290;SDS011;41155;39.768;2.712;2024-03-23T05:22:25;107.03;;;60.80;;
55290;SDS011;41155;39.768;2.712;2024-03-23T05:24:50;87.25;;;45.55;;
55290;SDS011;41155;39.768;2.712;2024-03-23T05:27:16;52.58;;;30.45;;
55290;SDS011;41155;39.768;2.712;2024-03-23T05:29:41;43.30;;;24.40;;
55290;SDS011;41155;39.768;2.712;2024-03-23T05:32:07;47.65;;;23.83;;
55290;SDS011;41155;39.768;2.712;2024-03-23T05:34:32;31.15;;;17.58;;
55290;SDS011;41155;39.768;2.712;2024-03-23T05:36:58;28.13;;;17.00;;
55290;SDS011;41155;39.768;2.712;2024-03-23T05:39:24;29.55;;;14.63;;
55290;SDS011;41155;39.768;2.712;2024-03-23T05:41:50;29.88;;;15.30;;
55290;SDS011;41155;39.768;2.712;2024-03-23T05:44:16;47.03;;;18.80;;
55290;SDS011;41155;39.768;2.712;2024-03-23T05:46:41;38.65;;;17.13;;
55290;SDS011;41155;39.768;2.712;2024-03-23T05:49:07;33.65;;;17.02;;
55290;SDS011;41155;39.768;2.712;2024-03-23T05:51:33;33.85;;;16.58;;
55290;SDS011;41155;39.768;2.712;2024-03-23T05:53:58;31.95;;;16.13;;
55290;SDS011;41155;39.768;2.712;2024-03-23T05:56:24;32.78;;;14.95;;
55290;SDS011;41155;39.768;2.712;2024-03-23T05:58:51;35.47;;;13.38;;
55290;SDS011;41155;39.768;2.712;2024-03-23T06:01:17;35.83;;;14.77;;
55290;SDS011;41155;39.768;2.712;2024-03-23T06:03:42;33.38;;;16.63;;
55290;SDS011;41155;39.768;2.712;2024-03-23T06:06:09;38.25;;;17.50;;
55290;SDS011;41155;39.768;2.712;2024-03-23T06:08:36;43.25;;;17.17;;
55290;SDS011;41155;39.768;2.712;2024-03-23T06:11:03;41.40;;;16.67;;
55290;SDS011;41155;39.768;2.712;2024-03-23T06:13:29;27.48;;;17.90;;
55290;SDS011;41155;39.768;2.712;2024-03-23T06:15:55;44.67;;;18.23;;
55290;SDS011;41155;39.768;2.712;2024-03-23T06:18:20;38.53;;;19.63;;
55290;SDS011;41155;39.768;2.712;2024-03-23T06:20:46;45.03;;;21.88;;
55290;SDS011;41155;39.768;2.712;2024-03-23T06:23:11;31.95;;;19.73;;
55290;SDS011;41155;39.768;2.712;2024-03-23T06:25:37;33.95;;;20.20;;
55290;SDS011;41155;39.768;2.712;2024-03-23T06:28:03;33.33;;;19.73;;
55290;SDS011;41155;39.768;2.712;2024-03-23T06:30:29;31.63;;;19.58;;
55290;SDS011;41155;39.768;2.712;2024-03-23T06:32:56;33.00;;;18.63;;
55290;SDS011;41155;39.768;2.712;2024-03-23T06:35:22;40.35;;;19.60;;
55290;SDS011;41155;39.768;2.712;2024-03-23T06:37:48;36.95;;;17.20;;
55290;SDS011;41155;39.768;2.712;2024-03-23T06:40:13;46.65;;;17.30;;
55290;SDS011;41155;39.768;2.712;2024-03-23T06:42:39;27.85;;;17.13;;
55290;SDS011;41155;39.768;2.712;2024-03-23T06:45:05;30.42;;;17.20;;
55290;SDS011;41155;39.768;2.712;2024-03-23T06:47:31;29.58;;;17.92;;
55290;SDS011;41155;39.768;2.712;2024-03-23T06:49:57;37.95;;;17.75;;
55290;SDS011;41155;39.768;2.712;2024-03-23T06:52:23;35.70;;;18.83;;
55290;SDS011;41155;39.768;2.712;2024-03-23T06:54:48;41.40;;;17.90;;
55290;SDS011;41155;39.768;2.712;2024-03-23T06:57:14;35.25;;;17.75;;
55290;SDS011;41155;39.768;2.712;2024-03-23T06:59:39;30.45;;;15.82;;
55290;SDS011;41155;39.768;2.712;2024-03-23T07:02:05;34.10;;;16.73;;
55290;SDS011;41155;39.768;2.712;2024-03-23T07:04:33;32.40;;;16.67;;
55290;SDS011;41155;39.768;2.712;2024-03-23T07:06:59;41.85;;;16.38;;
55290;SDS011;41155;39.768;2.712;2024-03-23T07:09:24;31.10;;;15.45;;
55290;SDS011;41155;39.768;2.712;2024-03-23T07:11:53;37.40;;;17.08;;
55290;SDS011;41155;39.768;2.712;2024-03-23T07:14:19;39.72;;;17.33;;
55290;SDS011;41155;39.768;2.712;2024-03-23T07:16:45;36.60;;;16.25;;
55290;SDS011;41155;39.768;2.712;2024-03-23T07:19:10;35.58;;;16.13;;
55290;SDS011;41155;39.768;2.712;2024-03-23T07:21:36;37.25;;;15.02;;
55290;SDS011;41155;39.768;2.712;2024-03-23T07:24:01;38.90;;;14.75;;
55290;SDS011;41155;39.768;2.712;2024-03-23T07:26:27;33.67;;;15.15;;
55290;SDS011;41155;39.768;2.712;2024-03-23T07:28:53;40.58;;;16.55;;
55290;SDS011;41155;39.768;2.712;2024-03-23T07:31:19;29.38;;;17.02;;
55290;SDS011;41155;39.768;2.712;2024-03-23T07:33:45;34.88;;;17.02;;
55290;SDS011;41155;39.768;2.712;2024-03-23T07:36:12;50.78;;;18.90;;
55290;SDS011;41155;39.768;2.712;2024-03-23T07:38:39;38.72;;;17.60;;
55290;SDS011;41155;39.768;2.712;2024-03-23T07:41:06;44.33;;;17.65;;
55290;SDS011;41155;39.768;2.712;2024-03-23T07:43:32;41.78;;;18.50;;
55290;SDS011;41155;39.768;2.712;2024-03-23T07:45:58;35.85;;;18.40;;
55290;SDS011;41155;39.768;2.712;2024-03-23T07:48:24;34.58;;;17.95;;
55290;SDS011;41155;39.768;2.712;2024-03-23T07:53:48;36.50;;;16.10;;
55290;SDS011;41155;39.768;2.712;2024-03-23T07:56:14;36.92;;;17.13;;
55290;SDS011;41155;39.768;2.712;2024-03-23T07:58:41;42.13;;;19.27;;
55290;SDS011;41155;39.768;2.712;2024-03-23T08:01:08;41.72;;;18.92;;
55290;SDS011;41155;39.768;2.712;2024-03-23T08:03:37;35.45;;;17.55;;
55290;SDS011;41155;39.768;2.712;2024-03-23T08:06:10;31.85;;;18.60;;
55290;SDS011;41155;39.768;2.712;2024-03-23T08:08:38;43.22;;;20.40;;
55290;SDS011;41155;39.768;2.712;2024-03-23T08:11:05;42.22;;;20.55;;
55290;SDS011;41155;39.768;2.712;2024-03-23T08:13:31;52.03;;;23.20;;
55290;SDS011;41155;39.768;2.712;2024-03-23T08:15:58;59.80;;;28.73;;
55290;SDS011;41155;39.768;2.712;2024-03-23T08:18:24;66.47;;;28.42;;
55290;SDS011;41155;39.768;2.712;2024-03-23T08:20:59;52.65;;;25.92;;
55290;SDS011;41155;39.768;2.712;2024-03-23T08:23:33;75.70;;;26.42;;
55290;SDS011;41155;39.768;2.712;2024-03-23T08:26:03;49.35;;;25.20;;
55290;SDS011;41155;39.768;2.712;2024-03-23T08:28:30;50.70;;;22.17;;
55290;SDS011;41155;39.768;2.712;2024-03-23T08:30:56;53.97;;;21.42;;
55290;SDS011;41155;39.768;2.712;2024-03-23T08:33:25;50.80;;;21.50;;
55290;SDS011;41155;39.768;2.712;2024-03-23T08:36:00;57.80;;;23.60;;
55290;SDS011;41155;39.768;2.712;2024-03-23T08:38:28;43.15;;;20.05;;
55290;SDS011;41155;39.768;2.712;2024-03-23T08:40:57;71.75;;;33.00;;
55290;SDS011;41155;39.768;2.712;2024-03-23T08:43:23;43.22;;;25.75;;
55290;SDS011;41155;39.768;2.712;2024-03-23T08:45:48;58.15;;;24.90;;
55290;SDS011;41155;39.768;2.712;2024-03-23T08:48:14;45.63;;;23.25;;
55290;SDS011;41155;39.768;2.712;2024-03-23T08:50:39;41.55;;;21.10;;
55290;SDS011;41155;39.768;2.712;2024-03-23T08:53:05;56.38;;;21.38;;
55290;SDS011;41155;39.768;2.712;2024-03-23T08:55:33;46.92;;;20.25;;
55290;SDS011;41155;39.768;2.712;2024-03-23T08:57:58;33.85;;;18.35;;
55290;SDS011;41155;39.768;2.712;2024-03-23T09:00:25;39.40;;;17.88;;
55290;SDS011;41155;39.768;2.712;2024-03-23T09:02:52;38.25;;;15.23;;
55290;SDS011;41155;39.768;2.712;2024-03-23T09:05:18;35.85;;;14.32;;
55290;SDS011;41155;39.768;2.712;2024-03-23T09:07:44;28.15;;;14.02;;
55290;SDS011;41155;39.768;2.712;2024-03-23T09:10:09;35.03;;;15.60;;
55290;SDS011;41155;39.768;2.712;2024-03-23T09:12:35;22.02;;;11.85;;
55290;SDS011;41155;39.768;2.712;2024-03-23T09:15:00;29.73;;;12.00;;
55290;SDS011;41155;39.768;2.712;2024-03-23T09:17:26;25.77;;;13.00;;
55290;SDS011;41155;39.768;2.712;2024-03-23T09:19:51;23.90;;;13.27;;
55290;SDS011;41155;39.768;2.712;2024-03-23T09:22:17;19.38;;;13.63;;
55290;SDS011;41155;39.768;2.712;2024-03-23T09:24:42;28.38;;;14.25;;
55290;SDS011;41155;39.768;2.712;2024-03-23T09:27:08;28.83;;;14.60;;
55290;SDS011;41155;39.768;2.712;2024-03-23T09:29:33;19.95;;;13.73;;
55290;SDS011;41155;39.768;2.712;2024-03-23T09:31:59;27.75;;;13.55;;
55290;SDS011;41155;39.768;2.712;2024-03-23T09:34:24;37.03;;;15.02;;
55290;SDS011;41155;39.768;2.712;2024-03-23T09:36:52;51.88;;;21.67;;
55290;SDS011;41155;39.768;2.712;2024-03-23T09:39:18;93.60;;;24.10;;
55290;SDS011;41155;39.768;2.712;2024-03-23T09:41:44;28.73;;;10.45;;
55290;SDS011;41155;39.768;2.712;2024-03-23T09:44:10;23.77;;;9.40;;
55290;SDS011;41155;39.768;2.712;2024-03-23T09:46:36;23.13;;;9.10;;
55290;SDS011;41155;39.768;2.712;2024-03-23T09:49:04;41.63;;;10.43;;
55290;SDS011;41155;39.768;2.712;2024-03-23T09:51:33;31.08;;;9.25;;
55290;SDS011;41155;39.768;2.712;2024-03-23T09:54:00;23.80;;;9.38;;
55290;SDS011;41155;39.768;2.712;2024-03-23T09:56:26;31.33;;;11.88;;
55290;SDS011;41155;39.768;2.712;2024-03-23T09:58:52;22.20;;;10.05;;
55290;SDS011;41155;39.768;2.712;2024-03-23T10:01:30;32.28;;;14.20;;
55290;SDS011;41155;39.768;2.712;2024-03-23T10:03:56;76.80;;;49.22;;
55290;SDS011;41155;39.768;2.712;2024-03-23T10:06:22;118.22;;;73.38;;
55290;SDS011;41155;39.768;2.712;2024-03-23T10:08:51;72.70;;;49.88;;
55290;SDS011;41155;39.768;2.712;2024-03-23T10:11:18;37.33;;;20.55;;
55290;SDS011;41155;39.768;2.712;2024-03-23T10:13:44;24.90;;;14.95;;
55290;SDS011;41155;39.768;2.712;2024-03-23T10:16:11;31.20;;;10.93;;
55290;SDS011;41155;39.768;2.712;2024-03-23T10:18:40;20.23;;;9.30;;
55290;SDS011;41155;39.768;2.712;2024-03-23T10:23:31;23.00;;;13.45;;
55290;SDS011;41155;39.768;2.712;2024-03-23T10:26:19;24.70;;;11.07;;
55290;SDS011;41155;39.768;2.712;2024-03-23T10:28:53;23.23;;;9.85;;
55290;SDS011;41155;39.768;2.712;2024-03-23T10:31:22;22.55;;;11.23;;
55290;SDS011;41155;39.768;2.712;2024-03-23T10:33:48;28.35;;;13.93;;
55290;SDS011;41155;39.768;2.712;2024-03-23T10:36:14;21.20;;;12.25;;
55290;SDS011;41155;39.768;2.712;2024-03-23T10:38:41;18.42;;;11.25;;
55290;SDS011;41155;39.768;2.712;2024-03-23T10:41:11;27.75;;;11.27;;
55290;SDS011;41155;39.768;2.712;2024-03-23T10:43:37;19.80;;;10.50;;
55290;SDS011;41155;39.768;2.712;2024-03-23T10:46:03;23.60;;;11.20;;
55290;SDS011;41155;39.768;2.712;2024-03-23T10:48:29;26.40;;;14.20;;
55290;SDS011;41155;39.768;2.712;2024-03-23T10:50:55;32.28;;;14.40;;
55290;SDS011;41155;39.768;2.712;2024-03-23T10:53:25;25.48;;;14.30;;
55290;SDS011;41155;39.768;2.712;2024-03-23T10:55:51;27.60;;;13.93;;
55290;SDS011;41155;39.768;2.712;2024-03-23T10:58:19;20.38;;;11.43;;
55290;SDS011;41155;39.768;2.712;2024-03-23T11:00:53;27.73;;;16.13;;
55290;SDS011;41155;39.768;2.712;2024-03-23T11:06:01;31.40;;;12.60;;
55290;SDS011;41155;39.768;2.712;2024-03-23T11:08:38;32.83;;;12.40;;
55290;SDS011;41155;39.768;2.712;2024-03-23T11:13:39;25.02;;;10.50;;
55290;SDS011;41155;39.768;2.712;2024-03-23T11:16:21;19.48;;;9.40;;
55290;SDS011;41155;39.768;2.712;2024-03-23T11:22:02;25.60;;;11.27;;
55290;SDS011;41155;39.768;2.712;2024-03-23T11:24:30;23.60;;;12.55;;
55290;SDS011;41155;39.768;2.712;2024-03-23T11:26:55;32.88;;;10.73;;
55290;SDS011;41155;39.768;2.712;2024-03-23T11:29:21;24.48;;;10.73;;
55290;SDS011;41155;39.768;2.712;2024-03-23T11:34:13;23.58;;;11.32;;
55290;SDS011;41155;39.768;2.712;2024-03-23T11:36:40;26.15;;;11.05;;
55290;SDS011;41155;39.768;2.712;2024-03-23T11:39:12;26.20;;;13.88;;
55290;SDS011;41155;39.768;2.712;2024-03-23T11:41:50;26.08;;;13.70;;
55290;SDS011;41155;39.768;2.712;2024-03-23T11:44:21;26.48;;;12.73;;
55290;SDS011;41155;39.768;2.712;2024-03-23T11:46:48;35.13;;;12.55;;
55290;SDS011;41155;39.768;2.712;2024-03-23T11:51:50;26.15;;;10.75;;
55290;SDS011;41155;39.768;2.712;2024-03-23T11:54:19;18.38;;;10.77;;
55290;SDS011;41155;39.768;2.712;2024-03-23T11:56:56;26.13;;;11.18;;
55290;SDS011;41155;39.768;2.712;2024-03-23T11:59:39;14.80;;;10.77;;
55290;SDS011;41155;39.768;2.712;2024-03-23T12:02:12;23.90;;;10.60;;
55290;SDS011;41155;39.768;2.712;2024-03-23T12:04:39;22.40;;;10.15;;
55290;SDS011;41155;39.768;2.712;2024-03-23T12:07:12;20.02;;;9.93;;
55290;SDS011;41155;39.768;2.712;2024-03-23T12:12:13;16.85;;;9.68;;
55290;SDS011;41155;39.768;2.712;2024-03-23T12:14:40;22.40;;;8.05;;
55290;SDS011;41155;39.768;2.712;2024-03-23T12:17:13;26.13;;;8.93;;
55290;SDS011;41155;39.768;2.712;2024-03-23T12:19:40;19.13;;;10.10;;
55290;SDS011;41155;39.768;2.712;2024-03-23T12:22:07;43.78;;;10.45;;
55290;SDS011;41155;39.768;2.712;2024-03-23T12:24:33;15.50;;;9.82;;
55290;SDS011;41155;39.768;2.712;2024-03-23T12:27:03;29.55;;;9.77;;
55290;SDS011;41155;39.768;2.712;2024-03-23T12:29:33;26.60;;;10.85;;
55290;SDS011;41155;39.768;2.712;2024-03-23T12:32:02;23.25;;;11.32;;
55290;SDS011;41155;39.768;2.712;2024-03-23T12:34:28;21.70;;;9.73;;
55290;SDS011;41155;39.768;2.712;2024-03-23T12:36:55;21.77;;;10.27;;
55290;SDS011;41155;39.768;2.712;2024-03-23T12:39:21;25.92;;;11.52;;
55290;SDS011;41155;39.768;2.712;2024-03-23T12:41:47;20.95;;;10.18;;
55290;SDS011;41155;39.768;2.712;2024-03-23T12:44:13;23.05;;;10.80;;
55290;SDS011;41155;39.768;2.712;2024-03-23T12:46:40;21.83;;;8.77;;
55290;SDS011;41155;39.768;2.712;2024-03-23T12:49:08;21.40;;;8.98;;
55290;SDS011;41155;39.768;2.712;2024-03-23T12:51:34;26.80;;;7.32;;
55290;SDS011;41155;39.768;2.712;2024-03-23T12:53:59;24.02;;;8.95;;
55290;SDS011;41155;39.768;2.712;2024-03-23T12:56:25;30.85;;;8.25;;
55290;SDS011;41155;39.768;2.712;2024-03-23T12:58:51;22.40;;;8.32;;
55290;SDS011;41155;39.768;2.712;2024-03-23T13:01:17;23.13;;;8.88;;
55290;SDS011;41155;39.768;2.712;2024-03-23T13:03:45;18.58;;;7.55;;
55290;SDS011;41155;39.768;2.712;2024-03-23T13:06:14;30.27;;;10.45;;
55290;SDS011;41155;39.768;2.712;2024-03-23T13:08:40;42.08;;;14.75;;
55290;SDS011;41155;39.768;2.712;2024-03-23T13:11:06;25.40;;;7.97;;
55290;SDS011;41155;39.768;2.712;2024-03-23T13:13:34;19.92;;;8.60;;
55290;SDS011;41155;39.768;2.712;2024-03-23T13:16:00;29.40;;;8.40;;
55290;SDS011;41155;39.768;2.712;2024-03-23T13:18:25;30.95;;;7.90;;
55290;SDS011;41155;39.768;2.712;2024-03-23T13:20:51;17.52;;;6.82;;
55290;SDS011;41155;39.768;2.712;2024-03-23T13:23:17;27.23;;;7.03;;
55290;SDS011;41155;39.768;2.712;2024-03-23T13:25:49;27.98;;;8.30;;
55290;SDS011;41155;39.768;2.712;2024-03-23T13:28:19;19.67;;;6.95;;
55290;SDS011;41155;39.768;2.712;2024-03-23T13:30:54;28.33;;;7.15;;
55290;SDS011;41155;39.768;2.712;2024-03-23T13:33:21;19.17;;;6.88;;
55290;SDS011;41155;39.768;2.712;2024-03-23T13:35:51;25.67;;;10.10;;
55290;SDS011;41155;39.768;2.712;2024-03-23T13:38:21;30.00;;;7.07;;
55290;SDS011;41155;39.768;2.712;2024-03-23T13:40:54;36.70;;;8.65;;
55290;SDS011;41155;39.768;2.712;2024-03-23T13:43:20;26.45;;;6.72;;
55290;SDS011;41155;39.768;2.712;2024-03-23T13:45:49;19.95;;;7.75;;
55290;SDS011;41155;39.768;2.712;2024-03-23T13:48:18;28.65;;;8.95;;
55290;SDS011;41155;39.768;2.712;2024-03-23T13:50:45;21.52;;;7.00;;
55290;SDS011;41155;39.768;2.712;2024-03-23T13:53:12;35.83;;;7.03;;
55290;SDS011;41155;39.768;2.712;2024-03-23T13:55:38;42.03;;;13.43;;
55290;SDS011;41155;39.768;2.712;2024-03-23T13:58:11;27.55;;;9.18;;
55290;SDS011;41155;39.768;2.712;2024-03-23T14:00:37;27.05;;;8.57;;
55290;SDS011;41155;39.768;2.712;2024-03-23T14:03:03;22.05;;;7.30;;
55290;SDS011;41155;39.768;2.712;2024-03-23T14:05:28;20.55;;;6.40;;
55290;SDS011;41155;39.768;2.712;2024-03-23T14:07:54;40.10;;;8.10;;
55290;SDS011;41155;39.768;2.712;2024-03-23T14:10:19;36.85;;;8.63;;
55290;SDS011;41155;39.768;2.712;2024-03-23T14:12:45;28.15;;;7.30;;
55290;SDS011;41155;39.768;2.712;2024-03-23T14:15:10;26.35;;;7.70;;
55290;SDS011;41155;39.768;2.712;2024-03-23T14:17:36;24.92;;;7.18;;
55290;SDS011;41155;39.768;2.712;2024-03-23T14:20:01;25.58;;;6.72;;
55290;SDS011;41155;39.768;2.712;2024-03-23T14:22:30;19.73;;;6.78;;
55290;SDS011;41155;39.768;2.712;2024-03-23T14:24:56;30.70;;;6.15;;
55290;SDS011;41155;39.768;2.712;2024-03-23T14:27:21;31.05;;;6.72;;
55290;SDS011;41155;39.768;2.712;2024-03-23T14:29:47;23.10;;;7.38;;
55290;SDS011;41155;39.768;2.712;2024-03-23T14:32:13;22.80;;;7.53;;
55290;SDS011;41155;39.768;2.712;2024-03-23T14:34:41;32.40;;;7.53;;
55290;SDS011;41155;39.768;2.712;2024-03-23T14:37:07;34.92;;;7.88;;
55290;SDS011;41155;39.768;2.712;2024-03-23T14:39:33;28.50;;;7.68;;
55290;SDS011;41155;39.768;2.712;2024-03-23T14:42:04;22.70;;;7.13;;
55290;SDS011;41155;39.768;2.712;2024-03-23T14:44:30;31.48;;;7.10;;
55290;SDS011;41155;39.768;2.712;2024-03-23T14:46:55;20.67;;;7.07;;
55290;SDS011;41155;39.768;2.712;2024-03-23T14:49:22;22.05;;;6.28;;
55290;SDS011;41155;39.768;2.712;2024-03-23T14:51:47;21.38;;;6.78;;
55290;SDS011;41155;39.768;2.712;2024-03-23T14:54:13;18.10;;;6.80;;
55290;SDS011;41155;39.768;2.712;2024-03-23T14:56:39;25.40;;;6.78;;
55290;SDS011;41155;39.768;2.712;2024-03-23T14:59:04;28.05;;;6.82;;
55290;SDS011;41155;39.768;2.712;2024-03-23T15:01:31;31.42;;;8.15;;
55290;SDS011;41155;39.768;2.712;2024-03-23T15:03:57;24.23;;;6.35;;
55290;SDS011;41155;39.768;2.712;2024-03-23T15:06:22;14.52;;;6.28;;
55290;SDS011;41155;39.768;2.712;2024-03-23T15:08:48;25.50;;;6.82;;
55290;SDS011;41155;39.768;2.712;2024-03-23T15:11:14;23.20;;;6.65;;
55290;SDS011;41155;39.768;2.712;2024-03-23T15:13:39;18.25;;;6.93;;
55290;SDS011;41155;39.768;2.712;2024-03-23T15:16:05;22.95;;;6.65;;
55290;SDS011;41155;39.768;2.712;2024-03-23T15:18:31;18.52;;;7.05;;
55290;SDS011;41155;39.768;2.712;2024-03-23T15:20:58;18.05;;;6.30;;
55290;SDS011;41155;39.768;2.712;2024-03-23T15:23:28;17.17;;;6.57;;
55290;SDS011;41155;39.768;2.712;2024-03-23T15:25:54;25.02;;;7.22;;
55290;SDS011;41155;39.768;2.712;2024-03-23T15:28:21;24.85;;;6.93;;
55290;SDS011;41155;39.768;2.712;2024-03-23T15:30:48;20.67;;;6.57;;
55290;SDS011;41155;39.768;2.712;2024-03-23T15:33:13;20.77;;;7.13;;
55290;SDS011;41155;39.768;2.712;2024-03-23T15:35:39;18.52;;;6.57;;